createdAt,value
2018-06-13T00:02:28.108Z,9.30
2018-06-13T00:04:57.187Z,8.80
2018-06-13T00:07:26.202Z,10.50
2018-06-13T00:09:55.215Z,9.03
2018-06-13T00:12:24.246Z,10.77
2018-06-13T00:14:53.262Z,8.00
2018-06-13T00:17:22.296Z,8.70
2018-06-13T00:19:51.303Z,8.50
2018-06-13T00:22:20.320Z,8.93
2018-06-13T00:24:49.326Z,6.83
2018-06-13T00:27:18.348Z,6.57
2018-06-13T00:29:47.407Z,6.93
2018-06-13T00:32:16.430Z,6.63
2018-06-13T00:34:45.439Z,7.00
2018-06-13T00:37:15.452Z,6.33
2018-06-13T00:39:44.006Z,6.30
2018-06-13T00:42:13.016Z,6.60
2018-06-13T00:44:42.105Z,4.53
2018-06-13T00:47:11.092Z,5.43
2018-06-13T00:49:40.124Z,5.00
2018-06-13T00:52:09.254Z,6.07
2018-06-13T00:54:38.280Z,5.63
2018-06-13T00:57:07.259Z,6.00
2018-06-13T00:59:36.313Z,7.13
2018-06-13T01:02:05.386Z,5.00
2018-06-13T01:04:34.476Z,6.90
2018-06-13T01:07:03.508Z,6.80
2018-06-13T01:09:32.566Z,7.53
2018-06-13T01:12:01.603Z,7.40
2018-06-13T01:14:30.615Z,6.90
2018-06-13T01:16:59.632Z,7.67
2018-06-13T01:19:28.662Z,6.90
2018-06-13T01:21:57.943Z,6.30
2018-06-13T01:24:27.006Z,7.30
2018-06-13T01:26:56.035Z,7.67
2018-06-13T01:29:25.014Z,8.00
2018-06-13T01:31:54.086Z,7.20
2018-06-13T01:34:23.076Z,5.80
2018-06-13T01:36:52.115Z,6.80
2018-06-13T01:39:21.150Z,6.27
2018-06-13T01:41:50.144Z,6.90
2018-06-13T01:44:19.209Z,7.03
2018-06-13T01:46:48.190Z,7.30
2018-06-13T01:49:17.214Z,6.93
2018-06-13T01:51:46.226Z,6.57
2018-06-13T01:54:15.722Z,8.20
2018-06-13T01:56:44.728Z,6.20
2018-06-13T01:59:13.765Z,6.63
2018-06-13T02:01:43.308Z,7.00
2018-06-13T02:04:12.344Z,7.27
2018-06-13T02:06:41.349Z,7.70
2018-06-13T02:09:10.407Z,8.20
2018-06-13T02:11:39.443Z,7.90
2018-06-13T02:14:08.499Z,7.90
2018-06-13T02:16:37.531Z,6.30
2018-06-13T02:19:06.530Z,7.10
2018-06-13T02:21:35.633Z,8.13
2018-06-13T02:24:04.620Z,8.13
2018-06-13T02:26:33.642Z,6.83
2018-06-13T02:29:02.664Z,9.00
2018-06-13T02:31:31.701Z,10.03
2018-06-13T02:34:00.711Z,9.33
2018-06-13T02:36:29.792Z,9.83
2018-06-13T02:38:58.828Z,10.57
2018-06-13T02:41:27.807Z,10.13
2018-06-13T02:43:56.888Z,11.17
2018-06-13T02:46:25.895Z,14.20
2018-06-13T02:48:54.939Z,12.97
2018-06-13T02:51:23.935Z,16.03
2018-06-13T02:53:52.983Z,14.90
2018-06-13T02:56:21.991Z,18.53
2018-06-13T02:58:51.033Z,13.33
2018-06-13T03:01:20.023Z,16.80
2018-06-13T03:03:49.020Z,13.20
2018-06-13T03:06:18.058Z,16.57
2018-06-13T03:08:47.078Z,16.07
2018-06-13T03:11:16.123Z,18.30
2018-06-13T03:13:45.131Z,17.83
2018-06-13T03:16:14.204Z,16.43
2018-06-13T03:18:43.234Z,22.13
2018-06-13T03:21:12.290Z,22.70
2018-06-13T03:23:41.287Z,22.10
2018-06-13T03:26:10.387Z,21.93
2018-06-13T03:28:39.423Z,25.00
2018-06-13T03:31:08.404Z,20.37
2018-06-13T03:33:37.462Z,25.00
2018-06-13T03:36:06.596Z,21.43
2018-06-13T03:38:35.624Z,23.30
2018-06-13T03:41:04.626Z,26.57
2018-06-13T03:43:33.676Z,25.00
2018-06-13T03:46:02.706Z,21.90
2018-06-13T03:48:32.699Z,25.27
2018-06-13T03:51:01.703Z,23.67
2018-06-13T03:53:30.779Z,21.40
2018-06-13T03:55:59.834Z,19.17
2018-06-13T03:58:28.834Z,22.70
2018-06-13T04:00:57.886Z,23.70
2018-06-13T04:03:26.871Z,27.50
2018-06-13T04:05:55.910Z,25.57
2018-06-13T04:08:24.898Z,22.80
2018-06-13T04:10:54.440Z,21.90
2018-06-13T04:13:23.503Z,20.77
2018-06-13T04:15:52.536Z,19.80
2018-06-13T04:18:21.540Z,22.67
2018-06-13T04:20:50.579Z,22.60
2018-06-13T04:23:19.627Z,23.93
2018-06-13T04:25:48.642Z,24.00
2018-06-13T04:28:17.664Z,24.60
2018-06-13T04:30:46.667Z,25.13
2018-06-13T04:33:15.706Z,26.27
2018-06-13T04:35:44.731Z,28.17
2018-06-13T04:38:13.776Z,29.37
2018-06-13T04:40:42.773Z,29.97
2018-06-13T04:43:11.808Z,33.90
2018-06-13T04:45:40.831Z,33.50
2018-06-13T04:48:09.867Z,36.17
2018-06-13T04:50:38.897Z,32.60
2018-06-13T04:53:07.994Z,26.90
2018-06-13T04:55:37.051Z,26.53
2018-06-13T04:58:06.051Z,21.20
2018-06-13T05:00:35.068Z,22.80
2018-06-13T05:03:04.080Z,20.40
2018-06-13T05:05:33.129Z,21.03
2018-06-13T05:08:02.255Z,21.13
2018-06-13T05:10:31.303Z,21.87
2018-06-13T05:13:00.522Z,21.37
2018-06-13T05:15:29.570Z,22.90
2018-06-13T05:17:58.568Z,22.70
2018-06-13T05:20:27.675Z,17.70
2018-06-13T05:22:56.760Z,18.20
2018-06-13T05:25:25.775Z,16.37
2018-06-13T05:27:54.818Z,15.80
2018-06-13T05:30:23.360Z,15.70
2018-06-13T05:32:52.388Z,17.60
2018-06-13T05:35:20.967Z,17.03
2018-06-13T05:37:50.010Z,15.87
2018-06-13T05:40:19.010Z,18.90
2018-06-13T05:42:48.038Z,20.67
2018-06-13T05:45:17.097Z,18.33
2018-06-13T05:47:46.119Z,17.07
2018-06-13T05:50:15.237Z,17.97
2018-06-13T05:52:44.376Z,19.23
2018-06-13T05:55:13.502Z,18.70
2018-06-13T05:57:42.511Z,22.07
2018-06-13T06:00:11.544Z,20.50
2018-06-13T06:02:40.613Z,20.30
2018-06-13T06:05:09.656Z,22.83
2018-06-13T06:07:38.655Z,22.20
2018-06-13T06:10:07.839Z,24.03
2018-06-13T06:12:36.839Z,24.30
2018-06-13T06:15:05.922Z,25.43
2018-06-13T06:17:34.915Z,23.93
2018-06-13T06:20:04.043Z,27.50
2018-06-13T06:22:33.119Z,25.20
2018-06-13T06:25:02.141Z,27.73
2018-06-13T06:27:31.183Z,23.83
2018-06-13T06:30:00.190Z,25.37
2018-06-13T06:32:29.279Z,26.03
2018-06-13T06:34:58.319Z,25.50
2018-06-13T06:37:27.388Z,26.77
2018-06-13T06:39:55.916Z,30.53
2018-06-13T06:42:24.978Z,29.63
2018-06-13T06:44:54.021Z,30.43
2018-06-13T06:47:23.068Z,28.00
2018-06-13T06:49:52.081Z,26.63
2018-06-13T06:52:21.128Z,25.80
2018-06-13T06:54:50.180Z,23.50
2018-06-13T06:57:19.186Z,23.87
2018-06-13T06:59:48.252Z,21.57
2018-06-13T07:02:17.253Z,21.53
2018-06-13T07:04:46.292Z,21.00
2018-06-13T07:07:15.661Z,23.67
2018-06-13T07:09:44.699Z,20.83
2018-06-13T07:12:13.240Z,23.57
2018-06-13T07:14:42.283Z,24.00
2018-06-13T07:17:11.299Z,21.63
2018-06-13T07:19:40.341Z,20.70
2018-06-13T07:22:10.375Z,21.80
2018-06-13T07:24:39.453Z,22.73
2018-06-13T07:27:08.452Z,21.97
2018-06-13T07:29:37.501Z,25.00
2018-06-13T07:32:06.528Z,23.80
2018-06-13T07:34:35.551Z,25.23
2018-06-13T07:37:04.609Z,25.97
2018-06-13T07:39:33.665Z,28.50
2018-06-13T07:42:02.715Z,28.87
2018-06-13T07:44:31.791Z,29.27
2018-06-13T07:47:00.907Z,31.30
2018-06-13T07:49:29.939Z,30.03
2018-06-13T07:52:00.947Z,29.53
2018-06-13T07:54:29.968Z,27.63
2018-06-13T07:56:59.610Z,28.10
2018-06-13T07:59:28.643Z,27.07
2018-06-13T08:01:57.675Z,29.40
2018-06-13T08:04:26.721Z,29.30
2018-06-13T08:06:55.907Z,30.10
2018-06-13T08:09:24.931Z,28.30
2018-06-13T08:11:53.953Z,29.23
2018-06-13T08:14:23.007Z,31.03
2018-06-13T08:16:52.008Z,30.17
2018-06-13T08:19:21.088Z,30.23
2018-06-13T08:21:50.102Z,31.67
2018-06-13T08:24:19.148Z,29.63
2018-06-13T08:26:53.821Z,30.50
2018-06-13T08:29:23.574Z,31.10
2018-06-13T08:31:52.601Z,32.03
2018-06-13T08:34:21.648Z,33.53
2018-06-13T08:36:50.785Z,32.93
2018-06-13T08:39:19.772Z,33.20
2018-06-13T08:41:49.051Z,30.50
2018-06-13T08:44:18.080Z,34.30
2018-06-13T08:46:47.156Z,37.27
2018-06-13T08:49:16.155Z,35.77
2018-06-13T08:51:45.227Z,40.83
2018-06-13T08:54:14.255Z,38.20
2018-06-13T08:56:43.332Z,40.70
2018-06-13T08:59:12.380Z,35.83
2018-06-13T09:01:41.363Z,39.10
2018-06-13T09:04:10.428Z,34.27
2018-06-13T09:06:39.449Z,37.50
2018-06-13T09:09:09.007Z,36.67
2018-06-13T09:11:38.154Z,35.20
2018-06-13T09:14:07.249Z,40.90
2018-06-13T09:16:36.259Z,37.67
2018-06-13T09:19:05.296Z,39.20
2018-06-13T09:21:34.315Z,40.83
2018-06-13T09:24:03.372Z,42.73
2018-06-13T09:26:32.567Z,41.90
2018-06-13T09:29:01.592Z,42.03
2018-06-13T09:31:30.629Z,42.70
2018-06-13T09:33:59.650Z,44.20
2018-06-13T09:36:28.680Z,42.77
2018-06-13T09:38:57.703Z,40.73
2018-06-13T09:41:26.744Z,45.20
2018-06-13T09:43:55.800Z,43.27
2018-06-13T09:46:24.838Z,45.10
2018-06-13T09:48:53.935Z,44.40
2018-06-13T09:51:22.978Z,42.27
2018-06-13T09:53:52.035Z,44.53
2018-06-13T09:56:21.027Z,40.83
2018-06-13T09:58:55.189Z,41.57
2018-06-13T10:01:29.496Z,37.93
2018-06-13T10:03:58.587Z,43.57
2018-06-13T10:06:27.578Z,41.43
2018-06-13T10:08:56.604Z,40.03
2018-06-13T10:11:25.880Z,40.90
2018-06-13T10:13:54.925Z,38.07
2018-06-13T10:16:23.920Z,36.63
2018-06-13T10:18:53.147Z,39.23
2018-06-13T10:21:22.692Z,36.10
2018-06-13T10:23:51.706Z,36.00
2018-06-13T10:26:20.755Z,36.77
2018-06-13T10:28:49.792Z,36.50
2018-06-13T10:31:18.818Z,39.50
2018-06-13T10:33:47.825Z,36.30
2018-06-13T10:36:16.851Z,39.67
2018-06-13T10:38:45.863Z,36.50
2018-06-13T10:41:14.447Z,38.27
2018-06-13T10:43:43.493Z,39.67
2018-06-13T10:46:12.536Z,37.10
2018-06-13T10:48:41.543Z,40.17
2018-06-13T10:51:10.556Z,38.03
2018-06-13T10:53:39.575Z,37.40
2018-06-13T10:56:08.625Z,36.60
2018-06-13T10:58:37.809Z,39.20
2018-06-13T11:01:06.811Z,34.17
2018-06-13T11:03:35.859Z,36.40
2018-06-13T11:06:04.987Z,34.00
2018-06-13T11:08:34.054Z,33.03
2018-06-13T11:11:03.295Z,33.23
2018-06-13T11:13:32.324Z,32.70
2018-06-13T11:16:01.354Z,33.87
2018-06-13T11:18:30.444Z,33.10
2018-06-13T11:20:59.469Z,34.90
2018-06-13T11:23:28.675Z,35.47
2018-06-13T11:25:57.707Z,34.60
2018-06-13T11:28:26.739Z,35.37
2018-06-13T11:30:55.794Z,36.00
2018-06-13T11:33:24.848Z,35.00
2018-06-13T11:35:53.847Z,35.40
2018-06-13T11:38:22.903Z,33.87
2018-06-13T11:40:51.912Z,30.60
2018-06-13T11:43:20.949Z,35.13
2018-06-13T11:45:49.988Z,35.97
2018-06-13T11:48:19.047Z,35.93
2018-06-13T11:50:48.078Z,34.40
2018-06-13T11:53:17.112Z,34.87
2018-06-13T11:55:46.167Z,35.53
2018-06-13T11:58:15.306Z,33.03
2018-06-13T12:00:44.325Z,32.53
2018-06-13T12:03:12.986Z,30.97
2018-06-13T12:05:41.987Z,29.80
2018-06-13T12:08:11.067Z,30.40
2018-06-13T12:10:40.107Z,30.07
2018-06-13T12:13:09.173Z,29.27
2018-06-13T12:15:38.206Z,29.97
2018-06-13T12:18:07.288Z,26.63
2018-06-13T12:20:36.466Z,28.70
2018-06-13T12:23:05.532Z,28.70
2018-06-13T12:25:34.634Z,27.63
2018-06-13T12:28:03.674Z,29.10
2018-06-13T12:30:32.718Z,26.93
2018-06-13T12:33:01.762Z,28.30
2018-06-13T12:35:30.865Z,26.70
2018-06-13T12:37:59.875Z,27.67
2018-06-13T12:40:28.923Z,27.00
2018-06-13T12:42:57.978Z,26.87
2018-06-13T12:45:27.110Z,26.43
2018-06-13T12:47:56.168Z,28.77
2018-06-13T12:50:25.196Z,29.30
2018-06-13T12:52:54.484Z,25.80
2018-06-13T12:55:23.504Z,27.33
2018-06-13T12:57:52.553Z,26.87
2018-06-13T13:00:21.574Z,28.13
2018-06-13T13:02:50.683Z,26.80
2018-06-13T13:05:19.747Z,27.67
2018-06-13T13:07:48.870Z,28.43
2018-06-13T13:10:17.945Z,28.50
2018-06-13T13:12:46.987Z,28.63
2018-06-13T13:15:16.080Z,29.10
2018-06-13T13:17:45.095Z,29.00
2018-06-13T13:20:14.191Z,28.63
2018-06-13T13:22:43.160Z,29.27
2018-06-13T13:25:12.208Z,28.40
2018-06-13T13:27:41.239Z,28.87
2018-06-13T13:30:10.278Z,28.40
2018-06-13T13:32:39.351Z,28.23
2018-06-13T13:35:08.366Z,29.73
2018-06-13T13:37:37.423Z,30.50
2018-06-13T13:40:06.527Z,28.40
2018-06-13T13:42:35.580Z,28.03
2018-06-13T13:45:04.791Z,28.23
2018-06-13T13:47:33.968Z,27.60
2018-06-13T13:50:02.992Z,26.80
2018-06-13T13:52:32.104Z,27.13
2018-06-13T13:55:01.111Z,26.40
2018-06-13T13:57:29.734Z,26.57
2018-06-13T13:59:59.044Z,25.80
2018-06-13T14:02:28.083Z,24.07
2018-06-13T14:04:57.132Z,23.13
2018-06-13T14:07:26.883Z,22.93
2018-06-13T14:09:55.958Z,23.33
2018-06-13T14:12:24.971Z,23.83
2018-06-13T14:14:54.033Z,20.43
2018-06-13T14:17:23.091Z,21.67
2018-06-13T14:19:52.119Z,21.67
2018-06-13T14:22:21.275Z,22.17
2018-06-13T14:24:50.861Z,21.20
2018-06-13T14:27:19.960Z,21.90
2018-06-13T14:29:48.959Z,23.63
2018-06-13T14:32:18.084Z,20.60
2018-06-13T14:34:47.138Z,22.17
2018-06-13T14:37:16.206Z,20.70
2018-06-13T14:39:45.515Z,20.67
2018-06-13T14:42:14.064Z,21.40
2018-06-13T14:44:43.115Z,21.23
2018-06-13T14:47:12.231Z,20.27
2018-06-13T14:49:41.655Z,20.60
2018-06-13T14:52:10.659Z,23.83
2018-06-13T14:54:39.717Z,21.60
2018-06-13T14:57:08.813Z,22.90
2018-06-13T14:59:37.890Z,22.17
2018-06-13T15:02:07.081Z,21.87
2018-06-13T15:04:36.612Z,24.70
2018-06-13T15:07:07.049Z,21.97
2018-06-13T15:09:36.121Z,22.80
2018-06-13T15:12:05.271Z,24.30
2018-06-13T15:14:33.874Z,23.23
2018-06-13T15:17:02.998Z,23.10
2018-06-13T15:19:32.111Z,22.67
2018-06-13T15:22:01.258Z,21.33
2018-06-13T15:24:30.278Z,20.20
2018-06-13T15:26:59.375Z,19.73
2018-06-13T15:29:28.515Z,20.77
2018-06-13T15:31:57.175Z,21.53
2018-06-13T15:34:26.249Z,18.93
2018-06-13T15:36:55.507Z,19.80
2018-06-13T15:39:24.585Z,19.93
2018-06-13T15:41:53.166Z,18.83
2018-06-13T15:44:22.230Z,19.93
2018-06-13T15:46:51.343Z,20.30
2018-06-13T15:49:20.411Z,19.70
2018-06-13T15:51:49.484Z,17.97
2018-06-13T15:54:18.651Z,18.13
2018-06-13T15:56:47.737Z,16.90
2018-06-13T15:59:16.795Z,18.60
2018-06-13T16:01:45.889Z,17.50
2018-06-13T16:04:14.944Z,18.50
2018-06-13T16:06:44.297Z,18.73
2018-06-13T16:09:13.340Z,18.50
2018-06-13T16:11:42.390Z,18.03
2018-06-13T16:14:11.493Z,19.60
2018-06-13T16:16:40.610Z,18.93
2018-06-13T16:19:09.670Z,19.07
2018-06-13T16:21:38.778Z,18.87
2018-06-13T16:24:07.342Z,19.97
2018-06-13T16:26:36.360Z,19.33
2018-06-13T16:29:05.611Z,19.70
2018-06-13T16:31:34.794Z,20.10
2018-06-13T16:34:03.792Z,19.27
2018-06-13T16:36:32.851Z,20.57
2018-06-13T16:39:01.884Z,18.40
2018-06-13T16:41:30.923Z,20.70
2018-06-13T16:44:00.012Z,15.93
2018-06-13T16:46:28.603Z,15.90
2018-06-13T16:48:57.646Z,16.73
2018-06-13T16:51:37.619Z,15.97
2018-06-13T16:54:13.020Z,16.77
2018-06-13T16:56:42.626Z,14.70
2018-06-13T16:59:11.701Z,16.30
2018-06-13T17:01:40.750Z,18.37
2018-06-13T17:04:09.844Z,18.63
2018-06-13T17:06:38.841Z,17.40
2018-06-13T17:09:08.423Z,19.00
2018-06-13T17:11:37.455Z,17.40
2018-06-13T17:14:06.555Z,17.67
2018-06-13T17:16:35.758Z,16.73
2018-06-13T17:19:04.857Z,17.77
2018-06-13T17:21:33.923Z,19.67
2018-06-13T17:24:02.494Z,18.10
2018-06-13T17:26:31.546Z,17.50
2018-06-13T17:29:00.580Z,17.97
2018-06-13T17:31:29.660Z,18.00
2018-06-13T17:33:58.699Z,17.40
2018-06-13T17:36:27.808Z,18.83
2018-06-13T17:38:56.858Z,17.63
2018-06-13T17:41:25.911Z,19.63
2018-06-13T17:43:54.982Z,19.97
2018-06-13T17:46:24.039Z,18.97
2018-06-13T17:48:53.187Z,17.37
2018-06-13T17:51:22.246Z,20.50
2018-06-13T17:53:51.307Z,18.10
2018-06-13T17:56:20.333Z,18.70
2018-06-13T17:58:49.447Z,18.60
2018-06-13T18:01:18.525Z,17.13
2018-06-13T18:03:47.713Z,17.70
2018-06-13T18:06:16.746Z,18.87
2018-06-13T18:08:45.832Z,16.60
2018-06-13T18:11:14.903Z,18.60
2018-06-13T18:13:43.961Z,16.33
2018-06-13T18:16:12.990Z,16.10
2018-06-13T18:18:42.072Z,16.57
2018-06-13T18:21:11.100Z,15.40
2018-06-13T18:23:40.190Z,14.97
2018-06-13T18:26:09.295Z,16.10
2018-06-13T18:28:38.321Z,17.17
2018-06-13T18:31:07.408Z,15.97
2018-06-13T18:33:35.982Z,16.50
2018-06-13T18:36:05.107Z,16.70
2018-06-13T18:38:34.155Z,16.00
2018-06-13T18:41:03.190Z,14.23
2018-06-13T18:43:32.204Z,14.83
2018-06-13T18:46:01.306Z,14.17
2018-06-13T18:48:30.411Z,14.50
2018-06-13T18:50:59.468Z,11.43
2018-06-13T18:53:28.617Z,12.20
2018-06-13T18:55:57.976Z,12.10
2018-06-13T18:58:27.607Z,11.53
2018-06-13T19:00:57.078Z,11.50
2018-06-13T19:03:27.423Z,12.37
2018-06-13T19:05:56.430Z,11.80
2018-06-13T19:08:26.374Z,10.30
2018-06-13T19:10:55.739Z,10.67
2018-06-13T19:13:24.779Z,10.63
2018-06-13T19:15:53.813Z,11.60
2018-06-13T19:18:23.178Z,11.03
2018-06-13T19:20:52.274Z,10.50
2018-06-13T19:23:21.255Z,11.50
2018-06-13T19:25:50.291Z,11.03
2018-06-13T19:28:19.458Z,10.20
2018-06-13T19:30:48.572Z,11.40
2018-06-13T19:33:17.622Z,11.80
2018-06-13T19:35:46.709Z,12.40
2018-06-13T19:38:15.719Z,11.20
2018-06-13T19:40:44.765Z,10.83
2018-06-13T19:43:18.775Z,10.77
2018-06-13T19:45:47.840Z,11.27
2018-06-13T19:48:22.071Z,12.20
2018-06-13T19:50:51.143Z,12.70
2018-06-13T19:53:25.330Z,12.27
2018-06-13T19:55:59.407Z,12.50
2018-06-13T19:58:28.440Z,10.80
2018-06-13T20:00:57.484Z,11.83
2018-06-13T20:03:31.679Z,10.20
2018-06-13T20:06:00.715Z,10.40
2018-06-13T20:08:29.759Z,10.77
2018-06-13T20:10:58.761Z,10.30
2018-06-13T20:13:32.832Z,11.43
2018-06-13T20:16:07.034Z,11.37
2018-06-13T20:18:42.311Z,11.40
2018-06-13T20:21:12.255Z,10.60
2018-06-13T20:23:42.520Z,12.30
2018-06-13T20:26:16.655Z,12.50
2018-06-13T20:28:50.791Z,12.90
2018-06-13T20:31:27.763Z,11.33
2018-06-13T20:33:56.824Z,10.93
2018-06-13T20:36:25.868Z,12.47
2018-06-13T20:38:54.957Z,12.43
2018-06-13T20:41:24.049Z,11.53
2018-06-13T20:43:53.301Z,11.30
2018-06-13T20:46:22.377Z,12.53
2018-06-13T20:48:51.449Z,11.50
2018-06-13T20:51:20.495Z,10.60
2018-06-13T20:53:49.631Z,12.93
2018-06-13T20:56:18.722Z,11.67
2018-06-13T20:58:51.321Z,12.03
2018-06-13T21:01:20.480Z,12.30
2018-06-13T21:03:49.594Z,11.80
2018-06-13T21:06:18.703Z,12.47
2018-06-13T21:08:48.746Z,11.90
2018-06-13T21:11:17.935Z,13.13
2018-06-13T21:13:47.023Z,13.37
2018-06-13T21:16:16.507Z,12.93
2018-06-13T21:18:45.517Z,11.87
2018-06-13T21:21:14.635Z,11.27
2018-06-13T21:23:43.659Z,12.57
2018-06-13T21:26:12.736Z,12.13
2018-06-13T21:28:41.846Z,11.90
2018-06-13T21:31:10.845Z,11.80
2018-06-13T21:33:39.905Z,10.77
2018-06-13T21:36:08.936Z,10.70
2018-06-13T21:38:37.967Z,10.80
2018-06-13T21:41:06.966Z,11.00
2018-06-13T21:43:36.059Z,10.13
2018-06-13T21:46:05.234Z,10.27
2018-06-13T21:48:34.322Z,11.40
2018-06-13T21:51:03.387Z,12.03
2018-06-13T21:53:32.404Z,11.50
2018-06-13T21:56:01.509Z,11.00
2018-06-13T21:58:30.092Z,10.83
2018-06-13T22:00:59.157Z,9.50
2018-06-13T22:03:28.260Z,10.53
2018-06-13T22:05:57.360Z,11.60
2018-06-13T22:08:26.423Z,11.23
2018-06-13T22:10:55.462Z,12.17
2018-06-13T22:13:24.529Z,11.17
2018-06-13T22:15:53.555Z,9.73
2018-06-13T22:18:23.444Z,9.00
2018-06-13T22:20:52.459Z,11.03
2018-06-13T22:23:21.551Z,10.60
2018-06-13T22:25:50.566Z,10.13
2018-06-13T22:28:19.673Z,9.37
2018-06-13T22:30:48.763Z,9.43
2018-06-13T22:33:17.799Z,8.83
2018-06-13T22:35:46.816Z,9.23
2018-06-13T22:38:16.907Z,9.43
2018-06-13T22:40:45.966Z,9.03
2018-06-13T22:43:15.072Z,10.73
2018-06-13T22:45:44.147Z,9.47
2018-06-13T22:48:13.394Z,9.63
2018-06-13T22:50:42.463Z,10.07
2018-06-13T22:53:11.555Z,9.43
2018-06-13T22:55:40.596Z,10.03
2018-06-13T22:58:09.611Z,9.63
2018-06-13T23:01:18.087Z,8.80
2018-06-13T23:03:47.136Z,10.43
2018-06-13T23:06:16.187Z,10.27
2018-06-13T23:08:45.172Z,10.10
2018-06-13T23:11:14.208Z,10.37
2018-06-13T23:13:44.131Z,11.53
2018-06-13T23:16:13.242Z,11.67
2018-06-13T23:18:42.275Z,11.27
2018-06-13T23:21:11.316Z,11.90
2018-06-13T23:23:40.379Z,9.70
2018-06-13T23:26:09.398Z,10.67
2018-06-13T23:28:38.421Z,12.33
2018-06-13T23:31:07.431Z,10.93
2018-06-13T23:33:36.480Z,9.80
2018-06-13T23:36:06.349Z,11.20
2018-06-13T23:38:35.390Z,9.90
2018-06-13T23:41:04.439Z,10.73
2018-06-13T23:43:33.473Z,10.20
2018-06-13T23:46:02.489Z,10.57
2018-06-13T23:48:31.563Z,9.43
2018-06-13T23:51:00.599Z,11.20
2018-06-13T23:53:29.641Z,9.30
2018-06-13T23:55:58.675Z,9.00
2018-06-13T23:58:27.696Z,9.77
